Terminal Aerodrome Forecast
Issued by NWS

Home | Current Version | Previous Version | Text Only | Print | Product List | Glossary On
Versions: 1 2 3 4 5 6 7 8 9 10 11 12
113
FTUS43 KEAX 061129
TAFSTJ
TAF
KSTJ 061129Z 0612/0712 34014G21KT P6SM BKN070
     FM061400 32016G23KT P6SM BKN250
     FM062200 29008KT P6SM BKN200
     FM070600 33008KT P6SM OVC100=

USA.gov is the U.S. government's official web portal to all federal, state and local government web resources and services.